Terminal Aerodrome Forecast
Issued by NWS

Current Version | Previous Version | Text Only | Print | Product List | Glossary Off
Versions: 1 2 3 4 5 6 7 8 9 10 11 12 13 14 15 16 17 18 19 20 21 22 23 24

005
FTUS41 KPBZ 191136
TAFHLG
TAF
KHLG 191136Z 1912/2012 23007KT P6SM OVC007
     FM191500 23003KT P6SM OVC015
     FM191800 18003KT P6SM BKN025
     FM192000 18003KT P6SM BKN050
     FM200800 10005KT P6SM OVC110
     FM201000 13005KT 6SM -SHRA OVC025=

USA.gov is the U.S. government's official web portal to all federal, state and local government web resources and services.